createdAt,value
2024-05-09T00:00:42.905Z,3.3
2024-05-09T00:01:45.334Z,3
2024-05-09T00:02:47.610Z,2.7
2024-05-09T00:03:50.272Z,2.6
2024-05-09T00:04:53.043Z,3.6
2024-05-09T00:05:55.099Z,2.7
2024-05-09T00:06:56.940Z,2.3
2024-05-09T00:07:59.145Z,2.5
2024-05-09T00:09:01.021Z,3
2024-05-09T00:10:09.371Z,3
2024-05-09T00:11:27.950Z,3.2
2024-05-09T00:12:30.435Z,2.8
2024-05-09T00:13:32.339Z,2.5
2024-05-09T00:14:34.403Z,2.6
2024-05-09T00:15:37.940Z,2.6
2024-05-09T00:16:39.688Z,3.5
2024-05-09T00:17:42.941Z,3
2024-05-09T00:18:45.674Z,3
2024-05-09T00:19:48.010Z,2.6
2024-05-09T00:20:50.389Z,4.8
2024-05-09T00:21:52.303Z,2.5
2024-05-09T00:22:54.177Z,3.4
2024-05-09T00:23:56.120Z,2.8
2024-05-09T00:24:57.612Z,3.4
2024-05-09T00:25:59.516Z,3.2
2024-05-09T00:27:01.252Z,3.6
2024-05-09T00:28:02.757Z,2.6
2024-05-09T00:29:04.876Z,3.2
2024-05-09T00:30:30.655Z,3.1
2024-05-09T00:31:38.463Z,3.4
2024-05-09T00:32:40.635Z,3.1
2024-05-09T00:33:43.986Z,2.6
2024-05-09T00:34:46.722Z,2.1
2024-05-09T00:35:48.595Z,3
2024-05-09T00:36:50.106Z,2.5
2024-05-09T00:37:51.893Z,3.6
2024-05-09T00:38:53.765Z,3.2
2024-05-09T00:39:55.262Z,2.5
2024-05-09T00:40:57.063Z,3.4
2024-05-09T00:41:58.749Z,2.6
2024-05-09T00:43:00.404Z,3.3
2024-05-09T00:44:02.344Z,4.4
2024-05-09T00:45:04.431Z,2.4
2024-05-09T00:46:05.913Z,3.3
2024-05-09T00:47:08.754Z,2.2
2024-05-09T00:48:21.519Z,2.8
2024-05-09T00:49:24.865Z,2.2
2024-05-09T00:50:39.418Z,2.4
2024-05-09T00:51:42.192Z,3.3
2024-05-09T00:52:44.238Z,3.1
2024-05-09T00:53:46.346Z,3.5
2024-05-09T00:54:48.233Z,3.1
2024-05-09T00:55:50.145Z,2.8
2024-05-09T00:56:52.159Z,2.8
2024-05-09T00:57:53.919Z,2.6
2024-05-09T00:58:56.157Z,3.1
2024-05-09T00:59:58.073Z,3
2024-05-09T01:01:00.187Z,2.4
2024-05-09T01:02:02.924Z,2.4
2024-05-09T01:03:07.206Z,2.6
2024-05-09T01:04:10.866Z,2.9
2024-05-09T01:05:13.968Z,3
2024-05-09T01:06:16.364Z,3.7
2024-05-09T01:07:18.336Z,3
2024-05-09T01:08:20.214Z,3.1
2024-05-09T01:09:21.868Z,3.2
2024-05-09T01:10:37.124Z,3.1
2024-05-09T01:11:39.688Z,2.5
2024-05-09T01:12:41.679Z,4
2024-05-09T01:13:43.725Z,3.3
2024-05-09T01:14:45.598Z,2.6
2024-05-09T01:15:47.088Z,3.4
2024-05-09T01:16:49.067Z,3
2024-05-09T01:17:52.439Z,3.2
2024-05-09T01:18:55.367Z,3
2024-05-09T01:19:57.980Z,2.6
2024-05-09T01:21:00.223Z,3
2024-05-09T01:22:02.084Z,3.5
2024-05-09T01:23:04.116Z,3.3
2024-05-09T01:24:05.889Z,2.3
2024-05-09T01:25:07.335Z,3.1
2024-05-09T01:26:08.908Z,3.1
2024-05-09T01:27:10.720Z,2.3
2024-05-09T01:28:12.376Z,2
2024-05-09T01:29:14.428Z,3.5
2024-05-09T01:30:37.651Z,2.9
2024-05-09T01:31:40.715Z,2.7
2024-05-09T01:32:43.041Z,3.4
2024-05-09T01:33:46.425Z,3
2024-05-09T01:34:49.234Z,2.5
2024-05-09T01:35:51.109Z,3.2
2024-05-09T01:36:52.711Z,3
2024-05-09T01:37:54.488Z,2.9
2024-05-09T01:38:56.378Z,2.7
2024-05-09T01:39:57.827Z,2.1
2024-05-09T01:40:59.828Z,2.6
2024-05-09T01:42:01.716Z,2.9
2024-05-09T01:43:03.209Z,3
2024-05-09T01:44:05.286Z,2.2
2024-05-09T01:45:07.227Z,2.6
2024-05-09T01:46:08.759Z,2.7
2024-05-09T01:47:10.902Z,2.6
2024-05-09T01:48:14.048Z,3.3
2024-05-09T01:49:17.477Z,2.4
2024-05-09T01:50:43.688Z,3.8
2024-05-09T01:51:45.723Z,3.8
2024-05-09T01:52:47.548Z,2.2
2024-05-09T01:53:49.202Z,3.4
2024-05-09T01:54:50.770Z,2.9
2024-05-09T01:55:53.060Z,3.7
2024-05-09T01:56:54.638Z,3
2024-05-09T01:57:56.199Z,2
2024-05-09T01:58:58.021Z,3.2
2024-05-09T01:59:59.902Z,2
2024-05-09T02:01:02.422Z,3.3
2024-05-09T02:02:05.617Z,3.2
2024-05-09T02:03:09.293Z,3
2024-05-09T02:04:14.407Z,3.3
2024-05-09T02:05:17.714Z,2.7
2024-05-09T02:06:19.681Z,3.6
2024-05-09T02:07:21.225Z,3.1
2024-05-09T02:08:23.462Z,2.8
2024-05-09T02:09:25.239Z,2.7
2024-05-09T02:10:34.332Z,2.5
2024-05-09T02:11:36.541Z,2.7
2024-05-09T02:12:38.568Z,2
2024-05-09T02:13:40.176Z,2.3
2024-05-09T02:14:41.699Z,3
2024-05-09T02:15:43.244Z,2.9
2024-05-09T02:16:45.239Z,3
2024-05-09T02:17:48.184Z,3.6
2024-05-09T02:18:51.370Z,2.3
2024-05-09T02:19:53.445Z,2.5
2024-05-09T02:20:55.554Z,2.8
2024-05-09T02:21:57.385Z,3.6
2024-05-09T02:22:58.961Z,2.2
2024-05-09T02:24:00.766Z,3.5
2024-05-09T02:25:02.232Z,2.5
2024-05-09T02:26:04.140Z,3.4
2024-05-09T02:27:06.284Z,2.3
2024-05-09T02:28:08.143Z,2.9
2024-05-09T02:29:10.008Z,3.5
2024-05-09T02:30:42.328Z,2.4
2024-05-09T02:31:45.124Z,1.9
2024-05-09T02:32:48.655Z,2.1
2024-05-09T02:33:52.048Z,1.9
2024-05-09T02:34:54.794Z,2.4
2024-05-09T02:35:56.759Z,2.6
2024-05-09T02:36:58.254Z,2.4
2024-05-09T02:38:00.925Z,3.8
2024-05-09T02:39:03.157Z,2.7
2024-05-09T02:40:21.763Z,4.1
2024-05-09T02:41:38.946Z,3.8
2024-05-09T02:42:41.100Z,2.9
2024-05-09T02:43:42.682Z,3.2
2024-05-09T02:44:44.527Z,2
2024-05-09T02:45:46.002Z,2.8
2024-05-09T02:46:47.906Z,3.1
2024-05-09T02:47:51.255Z,2.9
2024-05-09T02:48:54.131Z,2.1
2024-05-09T02:49:56.275Z,3.5
2024-05-09T02:50:58.290Z,2.6
2024-05-09T02:52:00.109Z,3
2024-05-09T02:53:02.165Z,3.2
2024-05-09T02:54:04.064Z,2.5
2024-05-09T02:55:05.572Z,2.8
2024-05-09T02:56:07.608Z,2.8
2024-05-09T02:57:09.552Z,2.8
2024-05-09T02:58:11.666Z,3.4
2024-05-09T02:59:13.925Z,3.6
2024-05-09T03:00:42.119Z,3.2
2024-05-09T03:01:46.057Z,3
2024-05-09T03:02:48.910Z,2.9
2024-05-09T03:03:52.679Z,3.1
2024-05-09T03:04:55.410Z,2.8
2024-05-09T03:05:57.621Z,2.9
2024-05-09T03:06:59.144Z,2.1
2024-05-09T03:08:01.318Z,3.2
2024-05-09T03:09:03.324Z,3.6
2024-05-09T03:10:28.924Z,2.6
2024-05-09T03:11:39.977Z,3.4
2024-05-09T03:12:42.656Z,2.2
2024-05-09T03:13:44.883Z,3.3
2024-05-09T03:14:46.546Z,3.1
2024-05-09T03:15:48.079Z,2.9
2024-05-09T03:16:49.843Z,2.9
2024-05-09T03:17:52.863Z,3
2024-05-09T03:18:55.616Z,3.1
2024-05-09T03:19:57.989Z,3.8
2024-05-09T03:21:00.602Z,2.3
2024-05-09T03:22:02.608Z,3.1
2024-05-09T03:23:06.649Z,4.3
2024-05-09T03:24:08.478Z,3.4
2024-05-09T03:25:09.968Z,3.7
2024-05-09T03:26:11.795Z,4.3
2024-05-09T03:27:13.920Z,3.4
2024-05-09T03:28:15.548Z,3.6
2024-05-09T03:29:17.409Z,3.4
2024-05-09T03:30:43.659Z,3.6
2024-05-09T03:31:45.770Z,4.6
2024-05-09T03:32:49.014Z,3.7
2024-05-09T03:33:52.213Z,4
2024-05-09T03:34:55.010Z,4.6
2024-05-09T03:35:56.783Z,3.3
2024-05-09T03:36:58.257Z,5.6
2024-05-09T03:38:00.272Z,3.9
2024-05-09T03:39:02.116Z,3.4
2024-05-09T03:40:20.459Z,3.8
2024-05-09T03:41:28.876Z,4.5
2024-05-09T03:42:30.939Z,4.3
2024-05-09T03:43:32.573Z,5.7
2024-05-09T03:44:34.463Z,5.1
2024-05-09T03:45:36.333Z,4.5
2024-05-09T03:46:37.786Z,4
2024-05-09T03:47:40.278Z,3.6
2024-05-09T03:48:42.816Z,4
2024-05-09T03:49:45.051Z,4.4
2024-05-09T03:50:47.397Z,4.1
2024-05-09T03:51:49.817Z,3.8
2024-05-09T03:52:51.839Z,2.8
2024-05-09T03:53:53.847Z,4.2
2024-05-09T03:54:55.322Z,3.7
2024-05-09T03:55:57.295Z,4.3
2024-05-09T03:56:59.123Z,4
2024-05-09T03:58:00.914Z,3
2024-05-09T03:59:03.055Z,3.6
2024-05-09T04:00:34.606Z,3.9
2024-05-09T04:01:42.849Z,4.1
2024-05-09T04:02:45.384Z,3.1
2024-05-09T04:03:48.537Z,3
2024-05-09T04:04:51.643Z,2.8
2024-05-09T04:05:53.970Z,2.8
2024-05-09T04:06:55.669Z,3.8
2024-05-09T04:07:57.497Z,3.5
2024-05-09T04:08:59.682Z,3.2
2024-05-09T04:10:01.253Z,3.6
2024-05-09T04:11:03.561Z,4
2024-05-09T04:12:06.463Z,3.7
2024-05-09T04:13:09.184Z,4.3
2024-05-09T04:14:11.021Z,4.7
2024-05-09T04:15:14.209Z,4
2024-05-09T04:16:15.825Z,2.8
2024-05-09T04:17:17.914Z,4
2024-05-09T04:18:20.170Z,3.6
2024-05-09T04:19:23.085Z,4.2
2024-05-09T04:20:41.992Z,3.8
2024-05-09T04:21:44.135Z,3.7
2024-05-09T04:22:46.157Z,3.7
2024-05-09T04:23:48.259Z,4
2024-05-09T04:24:50.109Z,3.4
2024-05-09T04:25:51.956Z,3.6
2024-05-09T04:26:53.851Z,3.5
2024-05-09T04:27:56.467Z,2.6
2024-05-09T04:28:58.538Z,4
2024-05-09T04:30:00.764Z,3
2024-05-09T04:31:02.247Z,3.1
2024-05-09T04:32:04.422Z,3.2
2024-05-09T04:33:14.429Z,3.4
2024-05-09T04:34:18.175Z,2.2
2024-05-09T04:35:20.721Z,3.2
2024-05-09T04:36:22.737Z,4.8
2024-05-09T04:37:24.581Z,3.4
2024-05-09T04:38:26.443Z,4.5
2024-05-09T04:39:28.498Z,6
2024-05-09T04:40:38.737Z,3.1
2024-05-09T04:41:41.128Z,3.9
2024-05-09T04:42:42.842Z,3.9
2024-05-09T04:43:44.801Z,5.7
2024-05-09T04:44:46.603Z,6
2024-05-09T04:45:48.818Z,4.3
2024-05-09T04:46:50.784Z,3.1
2024-05-09T04:47:53.717Z,4.6
2024-05-09T04:48:56.199Z,4.1
2024-05-09T04:49:58.366Z,2.4
2024-05-09T04:51:00.679Z,3.8
2024-05-09T04:52:02.382Z,3.2
2024-05-09T04:53:05.782Z,7
2024-05-09T04:54:36.877Z,3.7
2024-05-09T04:55:40.830Z,3.6
2024-05-09T04:56:42.988Z,3.5
2024-05-09T04:57:44.807Z,3.8
2024-05-09T04:58:46.669Z,2.8
2024-05-09T04:59:48.643Z,3.7
2024-05-09T05:00:50.661Z,3.7
2024-05-09T05:01:53.211Z,3.6
2024-05-09T05:02:58.402Z,3.6
2024-05-09T05:04:01.285Z,3.9
2024-05-09T05:05:04.284Z,3.5
2024-05-09T05:06:06.550Z,3.4
2024-05-09T05:07:08.392Z,5
2024-05-09T05:08:10.418Z,3.8
2024-05-09T05:09:12.397Z,4.7
2024-05-09T05:10:37.128Z,3.5
2024-05-09T05:11:39.387Z,3.5
2024-05-09T05:12:41.423Z,3.9
2024-05-09T05:13:43.064Z,4.8
2024-05-09T05:14:44.711Z,3.1
2024-05-09T05:15:46.150Z,2.8
2024-05-09T05:16:48.211Z,4
2024-05-09T05:17:51.197Z,3.3
2024-05-09T05:18:54.406Z,3.6
2024-05-09T05:19:57.175Z,4.3
2024-05-09T05:21:00.102Z,5.4
2024-05-09T05:22:01.835Z,3.8
2024-05-09T05:23:03.840Z,4.3
2024-05-09T05:24:06.078Z,3.9
2024-05-09T05:25:07.672Z,3.9
2024-05-09T05:26:09.601Z,3.6
2024-05-09T05:27:11.472Z,4.8
2024-05-09T05:28:13.090Z,3.5
2024-05-09T05:29:21.255Z,3.1
2024-05-09T05:30:35.622Z,3.6
2024-05-09T05:31:37.706Z,4.2
2024-05-09T05:32:40.489Z,6
2024-05-09T05:33:43.426Z,3
2024-05-09T05:34:45.791Z,6.8
2024-05-09T05:35:47.809Z,3.6
2024-05-09T05:36:49.460Z,2.8
2024-05-09T05:37:51.377Z,3.6
2024-05-09T05:38:53.675Z,4
2024-05-09T05:39:55.828Z,4.9
2024-05-09T05:40:58.018Z,3.3
2024-05-09T05:41:59.882Z,4.1
2024-05-09T05:43:01.429Z,3
2024-05-09T05:44:03.543Z,5.9
2024-05-09T05:45:10.282Z,3.5
2024-05-09T05:46:11.835Z,3.2
2024-05-09T05:47:14.024Z,4.1
2024-05-09T05:48:19.112Z,4.3
2024-05-09T05:49:22.387Z,4.2
2024-05-09T05:50:39.288Z,3.2
2024-05-09T05:51:41.501Z,3.4
2024-05-09T05:52:43.017Z,3.8
2024-05-09T05:53:45.008Z,4.1
2024-05-09T05:54:46.854Z,4.1
2024-05-09T05:55:49.097Z,3.4
2024-05-09T05:56:50.976Z,7.1
2024-05-09T05:57:52.973Z,4.4
2024-05-09T05:58:54.959Z,3.3
2024-05-09T05:59:56.907Z,4.1
2024-05-09T06:00:59.882Z,2.9
2024-05-09T06:02:02.367Z,3.8
2024-05-09T06:03:05.807Z,3
2024-05-09T06:04:08.964Z,2.9
2024-05-09T06:05:11.423Z,3.6
2024-05-09T06:06:14.037Z,4.2
2024-05-09T06:07:15.989Z,3.2
2024-05-09T06:08:17.758Z,3.7
2024-05-09T06:09:19.782Z,3.1
2024-05-09T06:10:41.607Z,3.4
2024-05-09T06:11:45.020Z,3.7
2024-05-09T06:12:47.125Z,3
2024-05-09T06:13:48.912Z,4.7
2024-05-09T06:14:50.941Z,6.1
2024-05-09T06:15:52.692Z,3.3
2024-05-09T06:16:59.068Z,3.8
2024-05-09T06:18:02.816Z,4
2024-05-09T06:19:06.084Z,3.3
2024-05-09T06:20:37.614Z,3.3
2024-05-09T06:21:40.452Z,2.8
2024-05-09T06:22:41.927Z,3.8
2024-05-09T06:23:43.883Z,3.2
2024-05-09T06:24:45.632Z,3.4
2024-05-09T06:25:47.573Z,2.9
2024-05-09T06:26:49.655Z,3.4
2024-05-09T06:27:51.190Z,2.4
2024-05-09T06:28:53.103Z,3.5
2024-05-09T06:29:54.962Z,4.1
2024-05-09T06:30:56.431Z,2.8
2024-05-09T06:32:01.563Z,3.5
2024-05-09T06:33:06.161Z,4.5
2024-05-09T06:34:09.298Z,3.9
2024-05-09T06:35:12.290Z,1.4
2024-05-09T06:36:14.181Z,4.3
2024-05-09T06:37:15.644Z,1.5
2024-05-09T06:38:17.431Z,1.6
2024-05-09T06:41:42.950Z,3.8
2024-05-09T06:42:44.702Z,4.1
2024-05-09T06:43:46.769Z,2.7
2024-05-09T06:44:48.739Z,4.4
2024-05-09T06:45:50.834Z,3.4
2024-05-09T06:46:54.091Z,3
2024-05-09T06:48:02.159Z,3.5
2024-05-09T06:49:05.916Z,3
2024-05-09T06:50:35.589Z,3.6
2024-05-09T06:51:41.576Z,3.8
2024-05-09T06:52:43.061Z,4
2024-05-09T06:53:44.861Z,2.9
2024-05-09T06:54:46.625Z,3
2024-05-09T06:55:48.806Z,3.3
2024-05-09T06:56:50.563Z,3.2
2024-05-09T06:57:52.466Z,3.3
2024-05-09T06:58:54.540Z,3.1
2024-05-09T06:59:56.457Z,3.3
2024-05-09T07:00:58.688Z,3.4
2024-05-09T07:02:00.495Z,3.1
2024-05-09T07:03:07.088Z,3.5
2024-05-09T07:04:10.434Z,2.6
2024-05-09T07:05:13.606Z,1.9
2024-05-09T07:06:16.203Z,2.8
2024-05-09T07:07:18.333Z,1.9
2024-05-09T07:08:20.553Z,2.5
2024-05-09T07:09:22.539Z,2.7
2024-05-09T07:10:37.554Z,2.7
2024-05-09T07:11:40.783Z,2.8
2024-05-09T07:12:42.906Z,2.4
2024-05-09T07:13:44.534Z,2.5
2024-05-09T07:14:46.778Z,2.6
2024-05-09T07:15:48.735Z,2.4
2024-05-09T07:16:50.943Z,2.1
2024-05-09T07:17:54.200Z,2.4
2024-05-09T07:18:57.330Z,1.6
2024-05-09T07:19:59.904Z,1.6
2024-05-09T07:21:02.466Z,2.5
2024-05-09T07:22:04.609Z,2
2024-05-09T07:23:06.638Z,1.8
2024-05-09T07:24:08.338Z,2.2
2024-05-09T07:25:09.790Z,2.1
2024-05-09T07:26:12.229Z,2.3
2024-05-09T07:27:14.671Z,2.2
2024-05-09T07:28:16.808Z,2.7
2024-05-09T07:29:19.651Z,1.8
2024-05-09T07:30:35.619Z,2.4
2024-05-09T07:31:37.398Z,2.1
2024-05-09T07:32:39.878Z,1.9
2024-05-09T07:33:42.733Z,1.7
2024-05-09T07:34:44.865Z,2.6
2024-05-09T07:35:47.313Z,1.7
2024-05-09T07:36:49.116Z,2.4
2024-05-09T07:37:51.112Z,2.1
2024-05-09T07:38:53.382Z,2.4
2024-05-09T07:39:55.498Z,2.3
2024-05-09T07:40:57.367Z,2.3
2024-05-09T07:41:59.181Z,1.6
2024-05-09T07:43:00.686Z,1.6
2024-05-09T07:44:02.422Z,2
2024-05-09T07:45:56.541Z,2.6
2024-05-09T07:53:49.375Z,2.4
2024-05-09T07:54:59.792Z,2.7
2024-05-09T07:56:03.144Z,2.3
2024-05-09T07:57:05.992Z,2.1
2024-05-09T07:58:08.078Z,2.9
2024-05-09T07:59:09.978Z,2.8
2024-05-09T08:00:31.762Z,1.9
2024-05-09T08:01:34.826Z,2
2024-05-09T08:02:37.268Z,2.4
2024-05-09T08:03:40.225Z,2.5
2024-05-09T08:04:42.935Z,2.7
2024-05-09T08:05:45.470Z,3.4
2024-05-09T08:06:47.702Z,2.3
2024-05-09T08:07:49.470Z,2.1
2024-05-09T08:08:51.123Z,2.6
2024-05-09T08:09:53.068Z,2.8
2024-05-09T08:10:55.357Z,2.7
2024-05-09T08:11:57.630Z,3.5
2024-05-09T08:12:59.892Z,2.9
2024-05-09T08:14:01.764Z,2.8
2024-05-09T08:15:03.332Z,2.4
2024-05-09T08:16:05.573Z,2.7
2024-05-09T08:17:08.565Z,2.3
2024-05-09T08:18:11.966Z,2.8
2024-05-09T08:19:15.073Z,2
2024-05-09T08:20:36.054Z,1.9
2024-05-09T08:21:38.086Z,2.9
2024-05-09T08:22:39.868Z,2.7
2024-05-09T08:23:41.476Z,2
2024-05-09T08:24:43.357Z,2.3
2024-05-09T08:25:45.201Z,3
2024-05-09T08:26:46.712Z,2.3
2024-05-09T08:27:48.467Z,2.2
2024-05-09T08:28:50.112Z,2.4
2024-05-09T08:29:51.771Z,2.4
2024-05-09T08:30:54.241Z,1.9
2024-05-09T08:31:57.040Z,2.1
2024-05-09T08:32:59.712Z,1.8
2024-05-09T08:34:02.831Z,2
2024-05-09T08:35:05.390Z,2.1
2024-05-09T08:36:07.327Z,1.6
2024-05-09T08:37:31.033Z,1.9
2024-05-09T08:38:41.170Z,2.3
2024-05-09T08:39:43.030Z,1.8
2024-05-09T08:40:45.891Z,2.3
2024-05-09T08:41:47.962Z,2.1
2024-05-09T08:42:50.237Z,2.1
2024-05-09T08:43:52.086Z,2.8
2024-05-09T08:44:53.566Z,1.4
2024-05-09T08:45:55.379Z,2.4
2024-05-09T08:46:57.173Z,2.3
2024-05-09T08:47:59.272Z,2.3
2024-05-09T08:49:02.533Z,2
2024-05-09T08:50:32.231Z,2.4
2024-05-09T08:51:41.994Z,2.2
2024-05-09T08:52:44.072Z,1.7
2024-05-09T08:53:45.529Z,2.6
2024-05-09T08:54:47.573Z,2
2024-05-09T08:55:49.537Z,1.9
2024-05-09T08:56:51.036Z,1.4
2024-05-09T08:57:53.396Z,2.2
2024-05-09T08:58:55.189Z,1.5
2024-05-09T08:59:56.670Z,1.8
2024-05-09T09:00:58.860Z,1.8
2024-05-09T09:02:01.454Z,1.7
2024-05-09T09:03:03.936Z,2.1
2024-05-09T09:04:06.881Z,1.8
2024-05-09T09:05:10.251Z,1.9
2024-05-09T09:06:12.936Z,1.6
2024-05-09T09:07:14.953Z,1.8
2024-05-09T09:08:16.877Z,0.9
2024-05-09T09:09:18.437Z,1.9
2024-05-09T09:10:34.156Z,2.6
2024-05-09T09:11:36.384Z,1.3
2024-05-09T09:12:38.270Z,1.6
2024-05-09T09:13:40.208Z,1.5
2024-05-09T09:14:41.785Z,1.8
2024-05-09T09:15:43.685Z,1.5
2024-05-09T09:16:45.538Z,1.7
2024-05-09T09:17:47.594Z,1.2
2024-05-09T09:18:50.619Z,2.3
2024-05-09T09:19:52.955Z,2
2024-05-09T09:20:55.061Z,2.1
2024-05-09T09:21:57.369Z,1.3
2024-05-09T09:22:59.255Z,2.1
2024-05-09T09:24:00.824Z,1.8
2024-05-09T09:25:02.799Z,1.8
2024-05-09T09:26:04.644Z,1.7
2024-05-09T09:27:06.200Z,1.4
2024-05-09T09:28:09.156Z,2
2024-05-09T09:29:11.757Z,2
2024-05-09T09:30:38.568Z,1.4
2024-05-09T09:31:41.015Z,1.6
2024-05-09T09:32:43.144Z,1.8
2024-05-09T09:33:46.492Z,2.3
2024-05-09T09:34:49.368Z,1.6
2024-05-09T09:35:51.305Z,1.8
2024-05-09T09:37:49.220Z,1.2
2024-05-09T09:38:50.725Z,1.7
2024-05-09T09:39:53.282Z,2.1
2024-05-09T09:40:55.435Z,1.8
2024-05-09T09:41:57.476Z,1.9
2024-05-09T09:42:59.554Z,2
2024-05-09T09:44:01.560Z,1.3
2024-05-09T09:45:06.703Z,1.7
2024-05-09T09:46:13.648Z,1.8
2024-05-09T09:47:16.167Z,1.7
2024-05-09T09:48:18.794Z,1.6
2024-05-09T09:49:21.118Z,2
2024-05-09T09:50:35.919Z,1.6
2024-05-09T09:51:37.801Z,1.5
2024-05-09T09:52:39.643Z,1.1
2024-05-09T09:53:41.141Z,1.7
2024-05-09T09:54:43.455Z,1.9
2024-05-09T09:55:45.479Z,1.9
2024-05-09T09:56:46.926Z,1.4
2024-05-09T09:57:48.687Z,1.3
2024-05-09T09:58:50.512Z,1.8
2024-05-09T09:59:52.029Z,1.7
2024-05-09T10:00:54.465Z,1.5
2024-05-09T10:01:57.715Z,1.4
2024-05-09T10:03:00.669Z,2.2
2024-05-09T10:04:04.353Z,1.8
2024-05-09T10:05:07.350Z,1.7
2024-05-09T10:06:09.790Z,2
2024-05-09T10:07:12.094Z,1.3
2024-05-09T10:08:14.511Z,2
2024-05-09T10:09:16.084Z,2.2
2024-05-09T10:10:34.111Z,1.2
2024-05-09T10:12:00.690Z,1.2
2024-05-09T10:13:03.455Z,1.5
2024-05-09T10:14:05.533Z,2
2024-05-09T10:15:07.084Z,1.9
2024-05-09T10:16:09.506Z,1.2
2024-05-09T10:17:11.542Z,1.8
2024-05-09T10:18:16.593Z,1.5
2024-05-09T10:19:19.599Z,2.1
2024-05-09T10:20:33.415Z,1.9
2024-05-09T10:21:36.133Z,1.3
2024-05-09T10:22:38.200Z,1.6
2024-05-09T10:23:39.658Z,0.9
2024-05-09T10:24:41.590Z,1.4
2024-05-09T10:25:43.636Z,0.9
2024-05-09T10:26:46.222Z,1.3
2024-05-09T10:27:47.970Z,1.4
2024-05-09T10:28:49.740Z,1.4
2024-05-09T10:29:51.232Z,1.1
2024-05-09T10:30:53.086Z,0.8
2024-05-09T10:31:56.083Z,1.2
2024-05-09T10:32:58.215Z,1.5
2024-05-09T10:34:01.923Z,1
2024-05-09T10:35:04.833Z,1.3
2024-05-09T10:36:07.261Z,1.5
2024-05-09T10:37:09.446Z,0.9
2024-05-09T10:38:11.347Z,1
2024-05-09T10:39:12.810Z,0.7
2024-05-09T10:40:32.604Z,1.1
2024-05-09T10:41:35.119Z,0.7
2024-05-09T10:42:36.998Z,1.2
2024-05-09T10:43:38.571Z,0.6
2024-05-09T10:44:40.082Z,1.9
2024-05-09T10:45:41.831Z,1.2
2024-05-09T10:46:43.494Z,1.3
2024-05-09T10:47:45.739Z,1.9
2024-05-09T10:48:50.279Z,2.1
2024-05-09T10:49:53.195Z,1.8
2024-05-09T10:50:55.279Z,1
2024-05-09T10:51:57.304Z,0.9
2024-05-09T10:52:59.123Z,0.8
2024-05-09T10:54:00.750Z,0.9
2024-05-09T10:55:06.613Z,1.5
2024-05-09T10:56:08.622Z,2.5
2024-05-09T10:57:10.215Z,1.3
2024-05-09T10:58:12.570Z,1
2024-05-09T10:59:14.453Z,1.1
2024-05-09T11:00:37.057Z,0.9
2024-05-09T11:01:39.515Z,1.1
2024-05-09T11:02:42.255Z,1.5
2024-05-09T11:03:45.598Z,1.3
2024-05-09T11:04:48.343Z,1.5
2024-05-09T11:05:50.996Z,0.8
2024-05-09T11:06:53.375Z,1.1
2024-05-09T11:07:55.267Z,0.9
2024-05-09T11:08:57.063Z,0.8
2024-05-09T11:09:59.044Z,0.8
2024-05-09T11:11:01.184Z,0.5
2024-05-09T11:12:03.149Z,0.6
2024-05-09T11:13:05.570Z,0.8
2024-05-09T11:14:07.473Z,0.8
2024-05-09T11:15:08.935Z,1.4
2024-05-09T11:16:10.931Z,0.8
2024-05-09T11:17:13.019Z,0.9
2024-05-09T11:18:15.394Z,2.4
2024-05-09T11:19:19.573Z,1.2
2024-05-09T11:20:35.794Z,0.9
2024-05-09T11:21:38.851Z,1.1
2024-05-09T11:22:40.698Z,1.3
2024-05-09T11:23:42.571Z,1.4
2024-05-09T11:24:44.389Z,1.5
2024-05-09T11:25:46.227Z,2.1
2024-05-09T11:26:47.791Z,2.1
2024-05-09T11:27:49.817Z,2
2024-05-09T11:28:51.725Z,2.9
2024-05-09T11:29:53.290Z,2.5
2024-05-09T11:30:55.275Z,2.4
2024-05-09T11:31:57.627Z,1.2
2024-05-09T11:33:00.635Z,1.4
2024-05-09T11:34:02.921Z,1.1
2024-05-09T11:35:04.743Z,1.4
2024-05-09T11:36:06.439Z,1
2024-05-09T11:37:08.413Z,1.2
2024-05-09T11:38:10.170Z,1.2
2024-05-09T11:39:11.660Z,2
2024-05-09T11:40:35.025Z,1.1
2024-05-09T11:41:37.130Z,2
2024-05-09T11:42:38.952Z,1.5
2024-05-09T11:43:40.863Z,1.1
2024-05-09T11:44:42.566Z,1.2
2024-05-09T11:45:44.327Z,0.8
2024-05-09T11:46:46.350Z,1.4
2024-05-09T11:47:48.573Z,1.7
2024-05-09T11:48:51.904Z,1.1
2024-05-09T11:49:54.738Z,0.8
2024-05-09T11:50:57.014Z,1
2024-05-09T11:51:59.049Z,1.5
2024-05-09T11:53:00.884Z,1.3
2024-05-09T11:54:02.374Z,2.1
2024-05-09T11:55:04.281Z,2.6
2024-05-09T11:56:06.281Z,2.8
2024-05-09T11:57:08.032Z,1.5
2024-05-09T11:58:10.151Z,1.9
2024-05-09T11:59:12.290Z,1
2024-05-09T12:00:38.285Z,0.9
2024-05-09T12:01:40.588Z,1.3
2024-05-09T12:02:42.577Z,0.5
2024-05-09T12:03:45.095Z,0.7
2024-05-09T12:04:47.812Z,0.9
2024-05-09T12:05:51.371Z,0.6
2024-05-09T12:06:54.095Z,1.1
2024-05-09T12:07:55.998Z,0.8
2024-05-09T12:08:57.450Z,1.1
2024-05-09T12:09:59.232Z,0.8
2024-05-09T12:11:02.329Z,0.5
2024-05-09T12:12:04.636Z,0.9
2024-05-09T12:13:08.808Z,1.3
2024-05-09T12:14:10.719Z,0.9
2024-05-09T12:15:12.231Z,0.6
2024-05-09T12:16:14.541Z,0.6
2024-05-09T12:17:17.244Z,0.9
2024-05-09T12:18:19.777Z,0.7
2024-05-09T12:19:22.204Z,0.6
2024-05-09T12:20:40.932Z,0.7
2024-05-09T12:21:42.925Z,0.8
2024-05-09T12:22:44.832Z,0.9
2024-05-09T12:23:46.494Z,1.9
2024-05-09T12:24:48.397Z,1
2024-05-09T12:25:50.322Z,0.5
2024-05-09T12:26:51.806Z,1
2024-05-09T12:27:53.640Z,1.3
2024-05-09T12:28:55.582Z,2
2024-05-09T12:29:57.201Z,2.5
2024-05-09T12:30:59.051Z,2.7
2024-05-09T12:32:01.613Z,1.4
2024-05-09T12:33:04.116Z,0.7
2024-05-09T12:34:07.407Z,0.5
2024-05-09T12:35:09.502Z,1
2024-05-09T12:36:11.094Z,1
2024-05-09T12:37:13.375Z,1.3
2024-05-09T12:38:16.210Z,0.6
2024-05-09T12:39:17.791Z,0.6
2024-05-09T12:40:39.824Z,0.7
2024-05-09T12:41:42.219Z,0.8
2024-05-09T12:42:44.066Z,0.9
2024-05-09T12:43:46.030Z,1.4
2024-05-09T12:44:47.576Z,0.6
2024-05-09T12:45:49.533Z,0.5
2024-05-09T12:46:51.396Z,0.7
2024-05-09T12:47:53.367Z,0.9
2024-05-09T12:48:56.850Z,0.5
2024-05-09T12:49:59.488Z,0.7
2024-05-09T12:51:01.261Z,0.8
2024-05-09T12:52:03.313Z,0.9
2024-05-09T12:53:05.998Z,0.4
2024-05-09T12:54:07.614Z,0.8
2024-05-09T12:55:09.980Z,0.4
2024-05-09T12:56:12.255Z,0.5
2024-05-09T12:57:13.755Z,0.8
2024-05-09T12:58:16.070Z,1.3
2024-05-09T12:59:19.161Z,1
2024-05-09T13:00:35.046Z,0.7
2024-05-09T13:01:37.606Z,1.3
2024-05-09T13:02:40.474Z,0.6
2024-05-09T13:03:43.401Z,0.8
2024-05-09T13:04:46.123Z,1.6
2024-05-09T13:05:48.706Z,1
2024-05-09T13:06:50.992Z,0.8
2024-05-09T13:07:52.854Z,0.8
2024-05-09T13:08:54.376Z,0.4
2024-05-09T13:09:56.461Z,0.6
2024-05-09T13:10:58.498Z,0.3
2024-05-09T13:12:00.685Z,0.5
2024-05-09T13:13:03.481Z,0.8
2024-05-09T13:14:05.815Z,0.9
2024-05-09T13:15:07.396Z,0.5
2024-05-09T13:16:09.248Z,0.8
2024-05-09T13:17:11.331Z,0.9
2024-05-09T13:18:13.411Z,0.8
2024-05-09T13:19:15.567Z,0.6
2024-05-09T13:20:36.550Z,0.7
2024-05-09T13:21:39.358Z,1.5
2024-05-09T13:22:41.217Z,0.7
2024-05-09T13:23:42.771Z,0.9
2024-05-09T13:24:44.607Z,0.8
2024-05-09T13:25:46.477Z,0.9
2024-05-09T13:26:47.964Z,0.7
2024-05-09T13:27:49.711Z,1.3
2024-05-09T13:28:51.175Z,1.1
2024-05-09T13:29:52.660Z,0.7
2024-05-09T13:30:54.776Z,1
2024-05-09T13:31:56.851Z,0.5
2024-05-09T13:32:59.101Z,1.2
2024-05-09T13:34:02.064Z,0.7
2024-05-09T13:35:04.497Z,0.5
2024-05-09T13:36:05.997Z,0.6
2024-05-09T13:37:08.064Z,0.6
2024-05-09T13:38:10.002Z,1
2024-05-09T13:39:11.456Z,0.8
2024-05-09T13:40:32.109Z,0.9
2024-05-09T13:41:38.264Z,0.9
2024-05-09T13:42:40.395Z,0.8
2024-05-09T13:43:42.069Z,0.7
2024-05-09T13:44:43.570Z,1
2024-05-09T13:45:45.538Z,0.6
2024-05-09T13:46:47.906Z,0.6
2024-05-09T13:47:50.533Z,0.4
2024-05-09T13:48:53.766Z,1
2024-05-09T13:49:56.366Z,1.1
2024-05-09T13:50:57.891Z,1
2024-05-09T13:51:59.817Z,0.5
2024-05-09T13:53:01.835Z,0.6
2024-05-09T13:54:03.904Z,0.6
2024-05-09T13:55:05.932Z,1.2
2024-05-09T13:56:07.762Z,0.7
2024-05-09T13:57:09.292Z,0.7
2024-05-09T13:58:11.200Z,0.7
2024-05-09T13:59:13.101Z,0.9
2024-05-09T14:00:49.607Z,0.7
2024-05-09T14:01:52.303Z,0.8
2024-05-09T14:04:30.788Z,1.1
2024-05-09T14:05:34.445Z,1.1
2024-05-09T14:06:37.410Z,0.6
2024-05-09T14:07:39.288Z,0.9
2024-05-09T14:08:40.794Z,0.9
2024-05-09T14:09:42.636Z,0.6
2024-05-09T14:10:46.076Z,0.6
2024-05-09T14:11:49.088Z,0.8
2024-05-09T14:12:51.566Z,0.9
2024-05-09T14:13:53.418Z,0.6
2024-05-09T14:14:54.887Z,0.7
2024-05-09T14:15:58.032Z,1.1
2024-05-09T14:17:01.157Z,0.6
2024-05-09T14:18:03.464Z,0.6
2024-05-09T14:19:05.555Z,0.5
2024-05-09T14:20:30.231Z,1.1
2024-05-09T14:21:34.743Z,1.1
2024-05-09T14:22:36.627Z,0.7
2024-05-09T14:23:38.211Z,1.1
2024-05-09T14:24:39.970Z,0.6
2024-05-09T14:25:51.270Z,0.9
2024-05-09T14:26:54.410Z,1
2024-05-09T14:27:56.637Z,0.7
2024-05-09T14:28:58.777Z,0.6
2024-05-09T14:30:00.952Z,1.2
2024-05-09T14:31:02.742Z,0.7
2024-05-09T14:32:04.714Z,0.8
2024-05-09T14:33:10.312Z,1.3
2024-05-09T14:34:13.513Z,0.5
2024-05-09T14:35:16.082Z,0.6
2024-05-09T14:36:18.020Z,1.4
2024-05-09T14:37:19.992Z,1.2
2024-05-09T14:38:21.817Z,1
2024-05-09T14:39:23.313Z,0.6
2024-05-09T14:40:44.733Z,0.9
2024-05-09T14:41:46.629Z,1
2024-05-09T14:42:48.690Z,1
2024-05-09T14:43:51.128Z,1
2024-05-09T14:44:52.940Z,0.8
2024-05-09T14:45:55.556Z,0.8
2024-05-09T14:46:58.381Z,0.5
2024-05-09T14:48:01.103Z,0.7
2024-05-09T14:49:04.246Z,0.7
2024-05-09T14:50:34.345Z,0.6
2024-05-09T14:51:42.118Z,1.2
2024-05-09T14:52:43.992Z,1.4
2024-05-09T14:53:45.585Z,1
2024-05-09T14:55:01.120Z,0.7
2024-05-09T14:56:03.184Z,0.5